sensor_id;sensor_type;location;lat;lon;timestamp;pressure;altitude;pressure_sealevel;temperature
74321;BMP280;62738;45.772;4.804;2023-07-09T00:00:17;99873.97;;;29.25
74321;BMP280;62738;45.772;4.804;2023-07-09T00:02:44;99875.28;;;29.08
74321;BMP280;62738;45.772;4.804;2023-07-09T00:05:16;99866.75;;;29.14
74321;BMP280;62738;45.772;4.804;2023-07-09T00:07:44;99874.81;;;29.42
74321;BMP280;62738;45.772;4.804;2023-07-09T00:10:18;99863.91;;;29.16
74321;BMP280;62738;45.772;4.804;2023-07-09T00:12:46;99873.84;;;29.07
74321;BMP280;62738;45.772;4.804;2023-07-09T00:15:14;99871.75;;;29.15
74321;BMP280;62738;45.772;4.804;2023-07-09T00:17:44;99866.72;;;29.10
74321;BMP280;62738;45.772;4.804;2023-07-09T00:20:14;99872.38;;;29.04
74321;BMP280;62738;45.772;4.804;2023-07-09T00:22:41;99880.66;;;28.72
74321;BMP280;62738;45.772;4.804;2023-07-09T00:25:19;99875.69;;;28.74
74321;BMP280;62738;45.772;4.804;2023-07-09T00:27:46;99878.03;;;28.94
74321;BMP280;62738;45.772;4.804;2023-07-09T00:30:18;99874.66;;;29.17
74321;BMP280;62738;45.772;4.804;2023-07-09T00:32:45;99867.91;;;28.81
74321;BMP280;62738;45.772;4.804;2023-07-09T00:35:12;99874.56;;;29.07
74321;BMP280;62738;45.772;4.804;2023-07-09T00:37:45;99868.84;;;29.05
74321;BMP280;62738;45.772;4.804;2023-07-09T00:40:21;99874.41;;;28.87
74321;BMP280;62738;45.772;4.804;2023-07-09T00:42:51;99872.09;;;28.70
74321;BMP280;62738;45.772;4.804;2023-07-09T00:45:24;99877.53;;;28.43
74321;BMP280;62738;45.772;4.804;2023-07-09T00:47:57;99873.22;;;28.42
74321;BMP280;62738;45.772;4.804;2023-07-09T00:50:46;99871.59;;;28.91
74321;BMP280;62738;45.772;4.804;2023-07-09T00:53:22;99879.59;;;29.11
74321;BMP280;62738;45.772;4.804;2023-07-09T00:56:02;99883.63;;;28.84
74321;BMP280;62738;45.772;4.804;2023-07-09T00:58:31;99883.19;;;28.39
74321;BMP280;62738;45.772;4.804;2023-07-09T01:03:45;99887.03;;;28.62
74321;BMP280;62738;45.772;4.804;2023-07-09T01:06:15;99888.44;;;28.63
74321;BMP280;62738;45.772;4.804;2023-07-09T01:08:45;99883.41;;;28.60
74321;BMP280;62738;45.772;4.804;2023-07-09T01:11:17;99882.03;;;28.65
74321;BMP280;62738;45.772;4.804;2023-07-09T01:13:53;99890.75;;;28.81
74321;BMP280;62738;45.772;4.804;2023-07-09T01:16:22;99882.72;;;28.63
74321;BMP280;62738;45.772;4.804;2023-07-09T01:18:51;99887.88;;;28.77
74321;BMP280;62738;45.772;4.804;2023-07-09T01:21:18;99887.69;;;28.59
74321;BMP280;62738;45.772;4.804;2023-07-09T01:23:47;99887.72;;;28.61
74321;BMP280;62738;45.772;4.804;2023-07-09T01:26:18;99885.28;;;28.37
74321;BMP280;62738;45.772;4.804;2023-07-09T01:28:45;99887.50;;;28.42
74321;BMP280;62738;45.772;4.804;2023-07-09T01:31:13;99890.44;;;28.50
74321;BMP280;62738;45.772;4.804;2023-07-09T01:33:43;99893.28;;;28.48
74321;BMP280;62738;45.772;4.804;2023-07-09T01:36:16;99898.16;;;28.38
74321;BMP280;62738;45.772;4.804;2023-07-09T01:38:44;99897.38;;;28.35
74321;BMP280;62738;45.772;4.804;2023-07-09T01:41:11;99895.19;;;28.26
74321;BMP280;62738;45.772;4.804;2023-07-09T01:43:41;99905.06;;;28.19
74321;BMP280;62738;45.772;4.804;2023-07-09T01:46:09;99898.53;;;28.10
74321;BMP280;62738;45.772;4.804;2023-07-09T01:48:36;99900.56;;;28.04
74321;BMP280;62738;45.772;4.804;2023-07-09T01:51:14;99897.19;;;28.17
74321;BMP280;62738;45.772;4.804;2023-07-09T01:53:43;99897.66;;;27.98
74321;BMP280;62738;45.772;4.804;2023-07-09T01:56:11;99898.78;;;27.76
74321;BMP280;62738;45.772;4.804;2023-07-09T01:58:37;99894.41;;;28.23
74321;BMP280;62738;45.772;4.804;2023-07-09T02:01:09;99899.78;;;27.95
74321;BMP280;62738;45.772;4.804;2023-07-09T02:03:36;99895.78;;;27.66
74321;BMP280;62738;45.772;4.804;2023-07-09T02:06:02;99896.69;;;27.81
74321;BMP280;62738;45.772;4.804;2023-07-09T02:08:37;99900.03;;;27.65
74321;BMP280;62738;45.772;4.804;2023-07-09T02:11:04;99906.53;;;27.68
74321;BMP280;62738;45.772;4.804;2023-07-09T02:13:30;99907.00;;;28.04
74321;BMP280;62738;45.772;4.804;2023-07-09T02:15:57;99896.88;;;27.93
74321;BMP280;62738;45.772;4.804;2023-07-09T02:18:24;99903.72;;;27.74
74321;BMP280;62738;45.772;4.804;2023-07-09T02:20:50;99904.94;;;27.59
74321;BMP280;62738;45.772;4.804;2023-07-09T02:23:17;99909.13;;;27.54
74321;BMP280;62738;45.772;4.804;2023-07-09T02:25:44;99910.69;;;27.61
74321;BMP280;62738;45.772;4.804;2023-07-09T02:28:10;99909.78;;;27.50
74321;BMP280;62738;45.772;4.804;2023-07-09T02:30:37;99907.50;;;27.41
74321;BMP280;62738;45.772;4.804;2023-07-09T02:33:04;99909.97;;;27.62
74321;BMP280;62738;45.772;4.804;2023-07-09T02:35:30;99902.59;;;27.47
74321;BMP280;62738;45.772;4.804;2023-07-09T02:37:57;99906.09;;;27.40
74321;BMP280;62738;45.772;4.804;2023-07-09T02:40:23;99910.41;;;27.43
74321;BMP280;62738;45.772;4.804;2023-07-09T02:42:50;99910.41;;;27.43
74321;BMP280;62738;45.772;4.804;2023-07-09T02:45:17;99906.09;;;27.40
74321;BMP280;62738;45.772;4.804;2023-07-09T02:47:43;99904.56;;;27.34
74321;BMP280;62738;45.772;4.804;2023-07-09T02:50:10;99903.72;;;27.28
74321;BMP280;62738;45.772;4.804;2023-07-09T02:52:37;99907.19;;;27.22
74321;BMP280;62738;45.772;4.804;2023-07-09T02:55:04;99914.06;;;27.07
74321;BMP280;62738;45.772;4.804;2023-07-09T02:57:31;99905.56;;;27.09
74321;BMP280;62738;45.772;4.804;2023-07-09T02:59:57;99915.53;;;27.08
74321;BMP280;62738;45.772;4.804;2023-07-09T03:02:24;99915.72;;;27.20
74321;BMP280;62738;45.772;4.804;2023-07-09T03:04:51;99914.41;;;27.71
74321;BMP280;62738;45.772;4.804;2023-07-09T03:07:17;99912.56;;;27.92
74321;BMP280;62738;45.772;4.804;2023-07-09T03:09:44;99917.97;;;27.72
74321;BMP280;62738;45.772;4.804;2023-07-09T03:12:10;99920.66;;;27.62
74321;BMP280;62738;45.772;4.804;2023-07-09T03:14:37;99918.91;;;27.41
74321;BMP280;62738;45.772;4.804;2023-07-09T03:17:04;99919.56;;;27.37
74321;BMP280;62738;45.772;4.804;2023-07-09T03:19:30;99919.13;;;27.13
74321;BMP280;62738;45.772;4.804;2023-07-09T03:22:01;99925.66;;;27.19
74321;BMP280;62738;45.772;4.804;2023-07-09T03:24:28;99924.28;;;27.22
74321;BMP280;62738;45.772;4.804;2023-07-09T03:26:56;99922.00;;;27.15
74321;BMP280;62738;45.772;4.804;2023-07-09T03:29:23;99927.06;;;27.18
74321;BMP280;62738;45.772;4.804;2023-07-09T03:31:50;99929.31;;;27.24
74321;BMP280;62738;45.772;4.804;2023-07-09T03:34:16;99923.38;;;27.54
74321;BMP280;62738;45.772;4.804;2023-07-09T03:36:44;99918.91;;;27.41
74321;BMP280;62738;45.772;4.804;2023-07-09T03:39:11;99928.66;;;27.27
74321;BMP280;62738;45.772;4.804;2023-07-09T03:41:38;99911.56;;;27.27
74321;BMP280;62738;45.772;4.804;2023-07-09T03:44:05;99920.06;;;27.25
74321;BMP280;62738;45.772;4.804;2023-07-09T03:46:31;99923.03;;;27.31
74321;BMP280;62738;45.772;4.804;2023-07-09T03:48:59;99918.97;;;27.45
74321;BMP280;62738;45.772;4.804;2023-07-09T03:51:26;99918.97;;;27.47
74321;BMP280;62738;45.772;4.804;2023-07-09T03:53:53;99922.56;;;27.47
74321;BMP280;62738;45.772;4.804;2023-07-09T03:56:19;99924.78;;;27.53
74321;BMP280;62738;45.772;4.804;2023-07-09T03:58:46;99921.28;;;27.56
74321;BMP280;62738;45.772;4.804;2023-07-09T04:01:13;99915.63;;;27.58
74321;BMP280;62738;45.772;4.804;2023-07-09T04:03:39;99925.03;;;27.69
74321;BMP280;62738;45.772;4.804;2023-07-09T04:06:06;99918.91;;;27.88
74321;BMP280;62738;45.772;4.804;2023-07-09T04:08:33;99923.00;;;27.75
74321;BMP280;62738;45.772;4.804;2023-07-09T04:11:01;99924.44;;;27.76
74321;BMP280;62738;45.772;4.804;2023-07-09T04:13:28;99922.25;;;27.71
74321;BMP280;62738;45.772;4.804;2023-07-09T04:15:55;99924.72;;;27.96
74321;BMP280;62738;45.772;4.804;2023-07-09T04:18:22;99929.88;;;28.08
74321;BMP280;62738;45.772;4.804;2023-07-09T04:20:50;99924.78;;;27.99
74321;BMP280;62738;45.772;4.804;2023-07-09T04:23:18;99929.56;;;27.86
74321;BMP280;62738;45.772;4.804;2023-07-09T04:25:44;99923.91;;;27.88
74321;BMP280;62738;45.772;4.804;2023-07-09T04:28:11;99920.88;;;27.76
74321;BMP280;62738;45.772;4.804;2023-07-09T04:30:38;99915.22;;;27.80
74321;BMP280;62738;45.772;4.804;2023-07-09T04:33:05;99921.88;;;27.94
74321;BMP280;62738;45.772;4.804;2023-07-09T04:35:32;99916.72;;;27.85
74321;BMP280;62738;45.772;4.804;2023-07-09T04:37:58;99921.06;;;27.88
74321;BMP280;62738;45.772;4.804;2023-07-09T04:40:25;99926.84;;;27.94
74321;BMP280;62738;45.772;4.804;2023-07-09T04:42:52;99921.06;;;27.90
74321;BMP280;62738;45.772;4.804;2023-07-09T04:45:18;99924.84;;;28.05
74321;BMP280;62738;45.772;4.804;2023-07-09T04:47:45;99920.56;;;28.06
74321;BMP280;62738;45.772;4.804;2023-07-09T04:50:12;99916.50;;;28.21
74321;BMP280;62738;45.772;4.804;2023-07-09T04:52:39;99922.38;;;28.37
74321;BMP280;62738;45.772;4.804;2023-07-09T04:55:06;99929.28;;;28.18
74321;BMP280;62738;45.772;4.804;2023-07-09T04:57:35;99925.91;;;28.35
74321;BMP280;62738;45.772;4.804;2023-07-09T05:00:03;99921.69;;;28.38
74321;BMP280;62738;45.772;4.804;2023-07-09T05:02:33;99921.06;;;28.46
74321;BMP280;62738;45.772;4.804;2023-07-09T05:05:00;99921.97;;;28.63
74321;BMP280;62738;45.772;4.804;2023-07-09T05:07:26;99921.75;;;28.44
74321;BMP280;62738;45.772;4.804;2023-07-09T05:09:53;99933.81;;;28.39
74321;BMP280;62738;45.772;4.804;2023-07-09T05:12:26;99926.94;;;28.60
74321;BMP280;62738;45.772;4.804;2023-07-09T05:14:54;99924.94;;;28.73
74321;BMP280;62738;45.772;4.804;2023-07-09T05:17:23;99935.63;;;28.72
74321;BMP280;62738;45.772;4.804;2023-07-09T05:19:51;99927.13;;;28.76
74321;BMP280;62738;45.772;4.804;2023-07-09T05:22:17;99929.34;;;28.84
74321;BMP280;62738;45.772;4.804;2023-07-09T05:24:44;99922.19;;;28.83
74321;BMP280;62738;45.772;4.804;2023-07-09T05:27:11;99925.88;;;28.93
74321;BMP280;62738;45.772;4.804;2023-07-09T05:29:38;99926.53;;;28.90
74321;BMP280;62738;45.772;4.804;2023-07-09T05:32:04;99925.00;;;28.81
74321;BMP280;62738;45.772;4.804;2023-07-09T05:34:31;99931.25;;;28.65
74321;BMP280;62738;45.772;4.804;2023-07-09T05:36:58;99925.41;;;29.21
74321;BMP280;62738;45.772;4.804;2023-07-09T05:39:27;99925.31;;;29.11
74321;BMP280;62738;45.772;4.804;2023-07-09T05:41:53;99927.38;;;29.02
74321;BMP280;62738;45.772;4.804;2023-07-09T05:44:20;99933.72;;;28.93
74321;BMP280;62738;45.772;4.804;2023-07-09T05:46:46;99937.25;;;28.89
74321;BMP280;62738;45.772;4.804;2023-07-09T05:49:13;99933.13;;;29.06
74321;BMP280;62738;45.772;4.804;2023-07-09T05:51:40;99928.75;;;28.97
74321;BMP280;62738;45.772;4.804;2023-07-09T05:54:06;99933.75;;;28.99
74321;BMP280;62738;45.772;4.804;2023-07-09T05:56:33;99938.03;;;28.94
74321;BMP280;62738;45.772;4.804;2023-07-09T05:59:00;99933.81;;;29.07
74321;BMP280;62738;45.772;4.804;2023-07-09T06:01:27;99937.38;;;29.03
74321;BMP280;62738;45.772;4.804;2023-07-09T06:03:53;99932.31;;;28.98
74321;BMP280;62738;45.772;4.804;2023-07-09T06:06:21;99936.91;;;29.33
74321;BMP280;62738;45.772;4.804;2023-07-09T06:08:48;99938.19;;;29.12
74321;BMP280;62738;45.772;4.804;2023-07-09T06:11:16;99934.00;;;29.27
74321;BMP280;62738;45.772;4.804;2023-07-09T06:13:46;99938.41;;;29.40
74321;BMP280;62738;45.772;4.804;2023-07-09T06:16:13;99949.22;;;29.52
74321;BMP280;62738;45.772;4.804;2023-07-09T06:18:40;99942.00;;;29.45
74321;BMP280;62738;45.772;4.804;2023-07-09T06:21:07;99947.84;;;29.61
74321;BMP280;62738;45.772;4.804;2023-07-09T06:23:35;99948.47;;;29.47
74321;BMP280;62738;45.772;4.804;2023-07-09T06:26:02;99951.34;;;29.47
74321;BMP280;62738;45.772;4.804;2023-07-09T06:28:30;99957.81;;;29.56
74321;BMP280;62738;45.772;4.804;2023-07-09T06:30:57;99959.97;;;29.57
74321;BMP280;62738;45.772;4.804;2023-07-09T06:33:24;99958.69;;;29.78
74321;BMP280;62738;45.772;4.804;2023-07-09T06:35:54;99960.91;;;29.90
74321;BMP280;62738;45.772;4.804;2023-07-09T06:38:21;99974.47;;;29.84
74321;BMP280;62738;45.772;4.804;2023-07-09T06:40:48;99980.88;;;29.80
74321;BMP280;62738;45.772;4.804;2023-07-09T06:43:16;99971.59;;;29.82
74321;BMP280;62738;45.772;4.804;2023-07-09T06:45:57;99971.59;;;29.82
74321;BMP280;62738;45.772;4.804;2023-07-09T06:48:25;99976.44;;;29.65
74321;BMP280;62738;45.772;4.804;2023-07-09T06:50:55;99971.59;;;29.84
74321;BMP280;62738;45.772;4.804;2023-07-09T06:53:22;99971.59;;;29.82
74321;BMP280;62738;45.772;4.804;2023-07-09T06:55:49;99978.13;;;30.00
74321;BMP280;62738;45.772;4.804;2023-07-09T06:58:19;99975.34;;;30.14
74321;BMP280;62738;45.772;4.804;2023-07-09T07:00:49;99980.47;;;30.36
74321;BMP280;62738;45.772;4.804;2023-07-09T07:03:16;99980.50;;;30.50
74321;BMP280;62738;45.772;4.804;2023-07-09T07:05:44;99967.63;;;30.57
74321;BMP280;62738;45.772;4.804;2023-07-09T07:08:14;99971.91;;;30.52
74321;BMP280;62738;45.772;4.804;2023-07-09T07:10:42;99979.03;;;30.47
74321;BMP280;62738;45.772;4.804;2023-07-09T07:13:10;99983.34;;;30.46
74321;BMP280;62738;45.772;4.804;2023-07-09T07:15:37;99987.63;;;30.49
74321;BMP280;62738;45.772;4.804;2023-07-09T07:18:04;99993.44;;;30.77
74321;BMP280;62738;45.772;4.804;2023-07-09T07:20:32;99976.31;;;30.93
74321;BMP280;62738;45.772;4.804;2023-07-09T07:22:58;99988.50;;;31.06
74321;BMP280;62738;45.772;4.804;2023-07-09T07:25:25;99987.78;;;31.16
74321;BMP280;62738;45.772;4.804;2023-07-09T07:27:52;99987.78;;;31.22
74321;BMP280;62738;45.772;4.804;2023-07-09T07:30:19;99989.22;;;31.23
74321;BMP280;62738;45.772;4.804;2023-07-09T07:32:50;99987.78;;;31.32
74321;BMP280;62738;45.772;4.804;2023-07-09T07:35:17;99990.63;;;31.56
74321;BMP280;62738;45.772;4.804;2023-07-09T07:37:45;99994.94;;;31.59
74321;BMP280;62738;45.772;4.804;2023-07-09T07:40:12;99993.47;;;31.70
74321;BMP280;62738;45.772;4.804;2023-07-09T07:42:39;99984.88;;;31.70
74321;BMP280;62738;45.772;4.804;2023-07-09T07:45:06;99989.78;;;32.14
74321;BMP280;62738;45.772;4.804;2023-07-09T07:47:34;99990.59;;;31.80
74321;BMP280;62738;45.772;4.804;2023-07-09T07:50:04;99996.22;;;32.12
74321;BMP280;62738;45.772;4.804;2023-07-09T07:52:31;99996.94;;;32.09
74321;BMP280;62738;45.772;4.804;2023-07-09T07:54:57;99995.50;;;32.22
74321;BMP280;62738;45.772;4.804;2023-07-09T07:57:24;100001.31;;;31.96
74321;BMP280;62738;45.772;4.804;2023-07-09T07:59:51;100003.44;;;32.03
74321;BMP280;62738;45.772;4.804;2023-07-09T08:02:18;100007.00;;;32.10
74321;BMP280;62738;45.772;4.804;2023-07-09T08:04:44;99996.84;;;32.37
74321;BMP280;62738;45.772;4.804;2023-07-09T08:07:11;99998.13;;;32.62
74321;BMP280;62738;45.772;4.804;2023-07-09T08:09:38;99989.56;;;32.58
74321;BMP280;62738;45.772;4.804;2023-07-09T08:12:06;99989.53;;;32.60
74321;BMP280;62738;45.772;4.804;2023-07-09T08:14:42;99988.75;;;32.70
74321;BMP280;62738;45.772;4.804;2023-07-09T08:17:10;99997.38;;;32.74
74321;BMP280;62738;45.772;4.804;2023-07-09T08:19:50;99990.19;;;32.73
74321;BMP280;62738;45.772;4.804;2023-07-09T08:22:17;99985.06;;;32.85
74321;BMP280;62738;45.772;4.804;2023-07-09T08:24:43;99977.78;;;32.98
74321;BMP280;62738;45.772;4.804;2023-07-09T08:27:10;99984.16;;;33.11
74321;BMP280;62738;45.772;4.804;2023-07-09T08:29:37;99979.09;;;33.14
74321;BMP280;62738;45.772;4.804;2023-07-09T08:32:04;99975.31;;;33.35
74321;BMP280;62738;45.772;4.804;2023-07-09T08:34:31;99982.41;;;33.44
74321;BMP280;62738;45.772;4.804;2023-07-09T08:36:58;99985.19;;;33.52
74321;BMP280;62738;45.772;4.804;2023-07-09T08:39:24;99978.59;;;33.66
74321;BMP280;62738;45.772;4.804;2023-07-09T08:41:58;99981.34;;;33.78
74321;BMP280;62738;45.772;4.804;2023-07-09T08:49:59;99969.75;;;33.84
74321;BMP280;62738;45.772;4.804;2023-07-09T08:54:59;99958.28;;;33.80
74321;BMP280;62738;45.772;4.804;2023-07-09T08:57:33;99963.28;;;33.82
74321;BMP280;62738;45.772;4.804;2023-07-09T09:00:31;99958.66;;;34.09
74321;BMP280;62738;45.772;4.804;2023-07-09T09:03:14;99958.44;;;34.25
74321;BMP280;62738;45.772;4.804;2023-07-09T09:05:45;99957.53;;;34.38
74321;BMP280;62738;45.772;4.804;2023-07-09T09:08:29;99951.38;;;34.63
74321;BMP280;62738;45.772;4.804;2023-07-09T09:11:05;99954.41;;;34.53
74321;BMP280;62738;45.772;4.804;2023-07-09T09:13:33;99954.75;;;34.75
74321;BMP280;62738;45.772;4.804;2023-07-09T09:16:06;99945.94;;;34.87
74321;BMP280;62738;45.772;4.804;2023-07-09T09:18:42;99948.44;;;34.67
74321;BMP280;62738;45.772;4.804;2023-07-09T09:21:22;99960.41;;;34.83
74321;BMP280;62738;45.772;4.804;2023-07-09T09:23:56;99950.94;;;34.91
74321;BMP280;62738;45.772;4.804;2023-07-09T09:26:33;99953.59;;;35.03
74321;BMP280;62738;45.772;4.804;2023-07-09T09:29:09;99950.41;;;35.19
74321;BMP280;62738;45.772;4.804;2023-07-09T09:31:37;99950.03;;;35.39
74321;BMP280;62738;45.772;4.804;2023-07-09T09:34:03;99956.13;;;35.62
74321;BMP280;62738;45.772;4.804;2023-07-09T09:36:36;99952.53;;;35.23
74321;BMP280;62738;45.772;4.804;2023-07-09T09:39:03;99948.50;;;35.44
74321;BMP280;62738;45.772;4.804;2023-07-09T09:41:30;99939.13;;;35.44
74321;BMP280;62738;45.772;4.804;2023-07-09T09:44:01;99934.94;;;35.73
74321;BMP280;62738;45.772;4.804;2023-07-09T09:46:31;99938.41;;;35.80
74321;BMP280;62738;45.772;4.804;2023-07-09T09:49:02;99937.69;;;36.12
74321;BMP280;62738;45.772;4.804;2023-07-09T09:51:29;99937.31;;;36.28
74321;BMP280;62738;45.772;4.804;2023-07-09T09:53:59;99935.13;;;36.29
74321;BMP280;62738;45.772;4.804;2023-07-09T09:56:33;99919.00;;;36.40
74321;BMP280;62738;45.772;4.804;2023-07-09T09:59:00;99919.66;;;36.42
74321;BMP280;62738;45.772;4.804;2023-07-09T10:01:33;99923.41;;;36.65
74321;BMP280;62738;45.772;4.804;2023-07-09T10:04:03;99935.41;;;37.05
74321;BMP280;62738;45.772;4.804;2023-07-09T10:06:41;99933.63;;;37.16
74321;BMP280;62738;45.772;4.804;2023-07-09T10:11:49;99935.25;;;37.35
74321;BMP280;62738;45.772;4.804;2023-07-09T10:14:30;99937.78;;;37.23
74321;BMP280;62738;45.772;4.804;2023-07-09T10:17:03;99943.25;;;37.60
74321;BMP280;62738;45.772;4.804;2023-07-09T10:19:39;99951.09;;;37.63
74321;BMP280;62738;45.772;4.804;2023-07-09T10:23:03;99937.56;;;37.80
74321;BMP280;62738;45.772;4.804;2023-07-09T10:30:35;99934.94;;;38.17
74321;BMP280;62738;45.772;4.804;2023-07-09T10:33:13;99931.53;;;38.34
74321;BMP280;62738;45.772;4.804;2023-07-09T10:41:28;99933.22;;;38.04
74321;BMP280;62738;45.772;4.804;2023-07-09T10:46:32;99924.38;;;38.31
74321;BMP280;62738;45.772;4.804;2023-07-09T10:49:01;99919.22;;;38.33
74321;BMP280;62738;45.772;4.804;2023-07-09T10:51:40;99909.41;;;38.86
74321;BMP280;62738;45.772;4.804;2023-07-09T10:54:52;99910.63;;;38.93
74321;BMP280;62738;45.772;4.804;2023-07-09T10:57:30;99905.75;;;38.67
74321;BMP280;62738;45.772;4.804;2023-07-09T10:59:58;99900.44;;;38.73
74321;BMP280;62738;45.772;4.804;2023-07-09T11:02:35;99905.75;;;38.67
74321;BMP280;62738;45.772;4.804;2023-07-09T11:05:05;99896.25;;;38.68
74321;BMP280;62738;45.772;4.804;2023-07-09T11:07:47;99891.31;;;38.85
74321;BMP280;62738;45.772;4.804;2023-07-09T11:10:32;99893.16;;;38.95
74321;BMP280;62738;45.772;4.804;2023-07-09T11:15:35;99897.31;;;39.00
74321;BMP280;62738;45.772;4.804;2023-07-09T11:18:07;99890.25;;;39.14
74321;BMP280;62738;45.772;4.804;2023-07-09T11:20:36;99893.63;;;39.01
74321;BMP280;62738;45.772;4.804;2023-07-09T11:23:17;99899.59;;;39.16
74321;BMP280;62738;45.772;4.804;2023-07-09T11:25:49;99888.47;;;38.83
74321;BMP280;62738;45.772;4.804;2023-07-09T11:28:16;99892.91;;;38.39
74321;BMP280;62738;45.772;4.804;2023-07-09T11:30:51;99891.34;;;38.65
74321;BMP280;62738;45.772;4.804;2023-07-09T11:33:27;99888.06;;;37.88
74321;BMP280;62738;45.772;4.804;2023-07-09T11:36:12;99889.31;;;38.39
74321;BMP280;62738;45.772;4.804;2023-07-09T11:38:43;99886.19;;;38.65
74321;BMP280;62738;45.772;4.804;2023-07-09T11:41:43;99872.38;;;39.07
74321;BMP280;62738;45.772;4.804;2023-07-09T11:49:19;99866.75;;;39.59
74321;BMP280;62738;45.772;4.804;2023-07-09T11:51:52;99870.56;;;39.72
74321;BMP280;62738;45.772;4.804;2023-07-09T11:54:20;99855.53;;;40.03
74321;BMP280;62738;45.772;4.804;2023-07-09T11:56:58;99867.47;;;39.94
74321;BMP280;62738;45.772;4.804;2023-07-09T11:59:25;99854.66;;;40.23
74321;BMP280;62738;45.772;4.804;2023-07-09T12:01:53;99856.34;;;40.34
74321;BMP280;62738;45.772;4.804;2023-07-09T12:04:25;99858.72;;;40.30
74321;BMP280;62738;45.772;4.804;2023-07-09T12:06:58;99846.13;;;40.19
74321;BMP280;62738;45.772;4.804;2023-07-09T12:09:31;99851.31;;;40.00
74321;BMP280;62738;45.772;4.804;2023-07-09T12:11:58;99850.25;;;40.24
74321;BMP280;62738;45.772;4.804;2023-07-09T12:14:25;99853.59;;;40.63
74321;BMP280;62738;45.772;4.804;2023-07-09T12:16:53;99848.41;;;40.49
74321;BMP280;62738;45.772;4.804;2023-07-09T12:19:22;99858.66;;;40.65
74321;BMP280;62738;45.772;4.804;2023-07-09T12:21:52;99847.59;;;40.67
74321;BMP280;62738;45.772;4.804;2023-07-09T12:24:25;99839.81;;;40.78
74321;BMP280;62738;45.772;4.804;2023-07-09T12:26:54;99836.19;;;40.95
74321;BMP280;62738;45.772;4.804;2023-07-09T12:29:27;99843.41;;;40.96
74321;BMP280;62738;45.772;4.804;2023-07-09T12:31:58;99839.03;;;41.11
74321;BMP280;62738;45.772;4.804;2023-07-09T12:34:25;99827.91;;;41.16
74321;BMP280;62738;45.772;4.804;2023-07-09T12:36:52;99839.13;;;41.09
74321;BMP280;62738;45.772;4.804;2023-07-09T12:39:24;99829.81;;;41.07
74321;BMP280;62738;45.772;4.804;2023-07-09T12:41:54;99836.03;;;41.13
74321;BMP280;62738;45.772;4.804;2023-07-09T12:44:22;99834.53;;;41.14
74321;BMP280;62738;45.772;4.804;2023-07-09T12:46:51;99825.81;;;41.14
74321;BMP280;62738;45.772;4.804;2023-07-09T12:49:30;99828.22;;;41.24
74321;BMP280;62738;45.772;4.804;2023-07-09T12:52:00;99826.06;;;41.54
74321;BMP280;62738;45.772;4.804;2023-07-09T12:54:30;99830.28;;;41.57
74321;BMP280;62738;45.772;4.804;2023-07-09T12:56:59;99820.22;;;41.25
74321;BMP280;62738;45.772;4.804;2023-07-09T12:59:28;99811.69;;;41.35
74321;BMP280;62738;45.772;4.804;2023-07-09T13:01:56;99817.44;;;41.66
74321;BMP280;62738;45.772;4.804;2023-07-09T13:04:31;99814.22;;;41.72
74321;BMP280;62738;45.772;4.804;2023-07-09T13:06:58;99820.94;;;41.84
74321;BMP280;62738;45.772;4.804;2023-07-09T13:09:27;99803.19;;;41.60
74321;BMP280;62738;45.772;4.804;2023-07-09T13:11:54;99809.47;;;41.36
74321;BMP280;62738;45.772;4.804;2023-07-09T13:14:28;99795.53;;;41.53
74321;BMP280;62738;45.772;4.804;2023-07-09T13:17:06;99803.31;;;42.00
74321;BMP280;62738;45.772;4.804;2023-07-09T13:19:33;99792.09;;;41.48
74321;BMP280;62738;45.772;4.804;2023-07-09T13:22:00;99813.44;;;40.82
74321;BMP280;62738;45.772;4.804;2023-07-09T13:24:29;99810.38;;;40.39
74321;BMP280;62738;45.772;4.804;2023-07-09T13:26:56;99803.47;;;39.97
74321;BMP280;62738;45.772;4.804;2023-07-09T13:29:27;99805.31;;;40.04
74321;BMP280;62738;45.772;4.804;2023-07-09T13:31:54;99803.28;;;39.84
74321;BMP280;62738;45.772;4.804;2023-07-09T13:34:34;99796.28;;;39.42
74321;BMP280;62738;45.772;4.804;2023-07-09T13:37:01;99795.53;;;39.25
74321;BMP280;62738;45.772;4.804;2023-07-09T13:39:28;99796.75;;;39.30
74321;BMP280;62738;45.772;4.804;2023-07-09T13:41:55;99795.28;;;39.12
74321;BMP280;62738;45.772;4.804;2023-07-09T13:44:28;99785.88;;;39.12
74321;BMP280;62738;45.772;4.804;2023-07-09T13:46:55;99782.50;;;39.05
74321;BMP280;62738;45.772;4.804;2023-07-09T13:49:24;99788.38;;;39.03
74321;BMP280;62738;45.772;4.804;2023-07-09T13:51:53;99781.41;;;38.96
74321;BMP280;62738;45.772;4.804;2023-07-09T13:54:27;99775.75;;;38.92
74321;BMP280;62738;45.772;4.804;2023-07-09T13:57:06;99784.22;;;38.98
74321;BMP280;62738;45.772;4.804;2023-07-09T13:59:33;99783.69;;;39.12
74321;BMP280;62738;45.772;4.804;2023-07-09T14:02:00;99782.56;;;39.03
74321;BMP280;62738;45.772;4.804;2023-07-09T14:04:27;99765.50;;;38.95
74321;BMP280;62738;45.772;4.804;2023-07-09T14:06:54;99766.31;;;38.73
74321;BMP280;62738;45.772;4.804;2023-07-09T14:09:22;99765.81;;;38.66
74321;BMP280;62738;45.772;4.804;2023-07-09T14:11:51;99763.38;;;38.54
74321;BMP280;62738;45.772;4.804;2023-07-09T14:14:32;99758.09;;;38.40
74321;BMP280;62738;45.772;4.804;2023-07-09T14:17:00;99763.09;;;38.42
74321;BMP280;62738;45.772;4.804;2023-07-09T14:19:27;99766.72;;;38.21
74321;BMP280;62738;45.772;4.804;2023-07-09T14:21:54;99760.63;;;38.09
74321;BMP280;62738;45.772;4.804;2023-07-09T14:24:24;99760.69;;;37.86
74321;BMP280;62738;45.772;4.804;2023-07-09T14:26:52;99763.19;;;37.98
74321;BMP280;62738;45.772;4.804;2023-07-09T14:29:20;99756.25;;;37.89
74321;BMP280;62738;45.772;4.804;2023-07-09T14:31:47;99760.25;;;37.55
74321;BMP280;62738;45.772;4.804;2023-07-09T14:34:27;99785.22;;;37.44
74321;BMP280;62738;45.772;4.804;2023-07-09T14:36:57;99805.69;;;37.13
74321;BMP280;62738;45.772;4.804;2023-07-09T14:39:26;99803.84;;;37.02
74321;BMP280;62738;45.772;4.804;2023-07-09T14:41:54;99779.47;;;36.95
74321;BMP280;62738;45.772;4.804;2023-07-09T14:46:50;99794.78;;;36.89
74321;BMP280;62738;45.772;4.804;2023-07-09T14:49:18;99805.44;;;36.97
74321;BMP280;62738;45.772;4.804;2023-07-09T14:51:45;99799.81;;;36.91
74321;BMP280;62738;45.772;4.804;2023-07-09T14:54:22;99793.97;;;36.93
74321;BMP280;62738;45.772;4.804;2023-07-09T14:56:51;99797.06;;;36.87
74321;BMP280;62738;45.772;4.804;2023-07-09T14:59:18;99791.16;;;36.91